sensor_id;sensor_type;location;lat;lon;timestamp;pressure;altitude;pressure_sealevel;temperature;humidity
72285;BME280;60220;53.552;10.092;2023-09-19T00:00:56;100147.84;;;17.83;100.00
72285;BME280;60220;53.552;10.092;2023-09-19T00:03:23;100137.88;;;17.71;100.00
72285;BME280;60220;53.552;10.092;2023-09-19T00:05:52;100146.19;;;17.29;100.00
72285;BME280;60220;53.552;10.092;2023-09-19T00:08:21;100149.56;;;17.50;100.00
72285;BME280;60220;53.552;10.092;2023-09-19T00:10:50;100140.06;;;17.10;100.00
72285;BME280;60220;53.552;10.092;2023-09-19T00:13:17;100150.97;;;17.04;100.00
72285;BME280;60220;53.552;10.092;2023-09-19T00:15:47;100141.22;;;17.57;100.00
72285;BME280;60220;53.552;10.092;2023-09-19T00:18:15;100146.69;;;17.37;100.00
72285;BME280;60220;53.552;10.092;2023-09-19T00:20:42;100151.59;;;17.45;100.00
72285;BME280;60220;53.552;10.092;2023-09-19T00:23:14;100150.59;;;17.47;100.00
72285;BME280;60220;53.552;10.092;2023-09-19T00:25:41;100153.75;;;17.54;100.00
72285;BME280;60220;53.552;10.092;2023-09-19T00:28:07;100143.88;;;17.75;100.00
72285;BME280;60220;53.552;10.092;2023-09-19T00:30:35;100152.78;;;17.74;100.00
72285;BME280;60220;53.552;10.092;2023-09-19T00:33:04;100167.25;;;17.68;100.00
72285;BME280;60220;53.552;10.092;2023-09-19T00:35:33;100150.59;;;17.47;100.00
72285;BME280;60220;53.552;10.092;2023-09-19T00:38:02;100154.94;;;17.31;100.00
72285;BME280;60220;53.552;10.092;2023-09-19T00:40:30;100148.16;;;17.94;100.00
72285;BME280;60220;53.552;10.092;2023-09-19T00:42:58;100158.09;;;17.74;100.00
72285;BME280;60220;53.552;10.092;2023-09-19T00:45:26;100151.97;;;17.89;100.00
72285;BME280;60220;53.552;10.092;2023-09-19T00:47:53;100145.59;;;17.76;100.00
72285;BME280;60220;53.552;10.092;2023-09-19T00:50:23;100158.91;;;17.40;100.00
72285;BME280;60220;53.552;10.092;2023-09-19T00:52:54;100149.34;;;17.72;100.00
72285;BME280;60220;53.552;10.092;2023-09-19T00:55:23;100140.34;;;17.23;100.00
72285;BME280;60220;53.552;10.092;2023-09-19T00:57:52;100153.84;;;17.18;100.00
72285;BME280;60220;53.552;10.092;2023-09-19T01:00:19;100157.75;;;17.45;100.00
72285;BME280;60220;53.552;10.092;2023-09-19T01:02:47;100157.81;;;17.62;100.00
72285;BME280;60220;53.552;10.092;2023-09-19T01:05:16;100158.31;;;17.69;100.00
72285;BME280;60220;53.552;10.092;2023-09-19T01:07:44;100163.72;;;17.68;100.00
72285;BME280;60220;53.552;10.092;2023-09-19T01:10:15;100166.84;;;17.76;100.00
72285;BME280;60220;53.552;10.092;2023-09-19T01:12:49;100168.38;;;17.45;100.00
72285;BME280;60220;53.552;10.092;2023-09-19T01:15:28;100172.19;;;17.23;100.00
72285;BME280;60220;53.552;10.092;2023-09-19T01:18:03;100174.31;;;18.02;100.00
72285;BME280;60220;53.552;10.092;2023-09-19T01:20:39;100171.66;;;17.85;100.00
72285;BME280;60220;53.552;10.092;2023-09-19T01:23:18;100175.69;;;17.40;100.00
72285;BME280;60220;53.552;10.092;2023-09-19T01:26:00;100171.03;;;17.28;100.00
72285;BME280;60220;53.552;10.092;2023-09-19T01:28:42;100182.75;;;17.76;100.00
72285;BME280;60220;53.552;10.092;2023-09-19T01:31:14;100182.34;;;18.00;100.00
72285;BME280;60220;53.552;10.092;2023-09-19T01:34:02;100177.31;;;17.61;100.00
72285;BME280;60220;53.552;10.092;2023-09-19T01:36:34;100186.00;;;17.46;100.00
72285;BME280;60220;53.552;10.092;2023-09-19T01:39:02;100182.84;;;17.91;100.00
72285;BME280;60220;53.552;10.092;2023-09-19T01:41:44;100179.63;;;18.02;100.00
72285;BME280;60220;53.552;10.092;2023-09-19T01:44:22;100191.66;;;17.57;100.00
72285;BME280;60220;53.552;10.092;2023-09-19T01:46:55;100192.56;;;17.03;100.00
72285;BME280;60220;53.552;10.092;2023-09-19T01:49:33;100189.66;;;17.44;100.00
72285;BME280;60220;53.552;10.092;2023-09-19T01:52:08;100196.91;;;17.23;100.00
72285;BME280;60220;53.552;10.092;2023-09-19T01:54:43;100193.31;;;17.24;100.00
72285;BME280;60220;53.552;10.092;2023-09-19T01:57:17;100198.75;;;17.57;100.00
72285;BME280;60220;53.552;10.092;2023-09-19T01:59:50;100191.31;;;17.46;100.00
72285;BME280;60220;53.552;10.092;2023-09-19T02:02:21;100200.97;;;17.30;100.00
72285;BME280;60220;53.552;10.092;2023-09-19T02:04:50;100202.06;;;17.26;100.00
72285;BME280;60220;53.552;10.092;2023-09-19T02:07:17;100200.97;;;17.66;100.00
72285;BME280;60220;53.552;10.092;2023-09-19T02:09:44;100203.06;;;17.77;100.00
72285;BME280;60220;53.552;10.092;2023-09-19T02:12:13;100216.56;;;18.06;100.00
72285;BME280;60220;53.552;10.092;2023-09-19T02:14:43;100219.84;;;17.60;100.00
72285;BME280;60220;53.552;10.092;2023-09-19T02:17:10;100216.28;;;17.78;100.00
72285;BME280;60220;53.552;10.092;2023-09-19T02:19:39;100214.09;;;17.86;100.00
72285;BME280;60220;53.552;10.092;2023-09-19T02:22:07;100222.44;;;17.61;100.00
72285;BME280;60220;53.552;10.092;2023-09-19T02:24:36;100223.00;;;17.49;100.00
72285;BME280;60220;53.552;10.092;2023-09-19T02:27:05;100229.69;;;17.39;100.00
72285;BME280;60220;53.552;10.092;2023-09-19T02:29:33;100231.91;;;17.48;100.00
72285;BME280;60220;53.552;10.092;2023-09-19T02:32:02;100226.72;;;17.09;100.00
72285;BME280;60220;53.552;10.092;2023-09-19T02:34:29;100225.94;;;17.62;100.00
72285;BME280;60220;53.552;10.092;2023-09-19T02:36:58;100228.75;;;17.40;100.00
72285;BME280;60220;53.552;10.092;2023-09-19T02:39:25;100235.56;;;17.10;100.00
72285;BME280;60220;53.552;10.092;2023-09-19T02:41:55;100236.53;;;17.26;100.00
72285;BME280;60220;53.552;10.092;2023-09-19T02:44:25;100224.25;;;17.42;100.00
72285;BME280;60220;53.552;10.092;2023-09-19T02:46:54;100229.09;;;17.51;100.00
72285;BME280;60220;53.552;10.092;2023-09-19T02:49:22;100230.56;;;17.40;100.00
72285;BME280;60220;53.552;10.092;2023-09-19T02:51:49;100233.97;;;17.06;100.00
72285;BME280;60220;53.552;10.092;2023-09-19T02:54:18;100257.06;;;17.23;100.00
72285;BME280;60220;53.552;10.092;2023-09-19T02:56:48;100237.97;;;17.33;100.00
72285;BME280;60220;53.552;10.092;2023-09-19T02:59:17;100242.88;;;17.05;100.00
72285;BME280;60220;53.552;10.092;2023-09-19T03:01:45;100235.22;;;17.35;100.00
72285;BME280;60220;53.552;10.092;2023-09-19T03:04:15;100238.34;;;17.07;100.00
72285;BME280;60220;53.552;10.092;2023-09-19T03:06:45;100230.06;;;17.32;100.00
72285;BME280;60220;53.552;10.092;2023-09-19T03:09:12;100232.72;;;16.77;100.00
72285;BME280;60220;53.552;10.092;2023-09-19T03:11:40;100238.13;;;17.11;100.00
72285;BME280;60220;53.552;10.092;2023-09-19T03:14:07;100245.16;;;16.94;100.00
72285;BME280;60220;53.552;10.092;2023-09-19T03:16:35;100249.00;;;17.24;100.00
72285;BME280;60220;53.552;10.092;2023-09-19T03:19:05;100253.28;;;16.52;100.00
72285;BME280;60220;53.552;10.092;2023-09-19T03:21:32;100257.34;;;17.16;100.00
72285;BME280;60220;53.552;10.092;2023-09-19T03:24:00;100258.50;;;17.11;100.00
72285;BME280;60220;53.552;10.092;2023-09-19T03:26:27;100258.22;;;17.17;100.00
72285;BME280;60220;53.552;10.092;2023-09-19T03:28:58;100257.34;;;17.16;100.00
72285;BME280;60220;53.552;10.092;2023-09-19T03:31:25;100250.72;;;17.25;100.00
72285;BME280;60220;53.552;10.092;2023-09-19T03:33:51;100248.69;;;17.13;100.00
72285;BME280;60220;53.552;10.092;2023-09-19T03:36:21;100249.47;;;16.96;100.00
72285;BME280;60220;53.552;10.092;2023-09-19T03:38:50;100244.84;;;17.37;100.00
72285;BME280;60220;53.552;10.092;2023-09-19T03:41:17;100255.22;;;16.87;100.00
72285;BME280;60220;53.552;10.092;2023-09-19T03:43:45;100262.56;;;16.81;100.00
72285;BME280;60220;53.552;10.092;2023-09-19T03:46:13;100269.50;;;16.44;100.00
72285;BME280;60220;53.552;10.092;2023-09-19T03:48:40;100272.19;;;16.83;100.00
72285;BME280;60220;53.552;10.092;2023-09-19T03:51:10;100269.00;;;16.94;100.00
72285;BME280;60220;53.552;10.092;2023-09-19T03:53:37;100272.91;;;16.68;100.00
72285;BME280;60220;53.552;10.092;2023-09-19T03:56:04;100271.19;;;16.86;100.00
72285;BME280;60220;53.552;10.092;2023-09-19T03:58:31;100281.22;;;16.59;100.00
72285;BME280;60220;53.552;10.092;2023-09-19T04:00:59;100288.78;;;16.48;100.00
72285;BME280;60220;53.552;10.092;2023-09-19T04:03:30;100291.09;;;16.55;100.00
72285;BME280;60220;53.552;10.092;2023-09-19T04:06:00;100283.72;;;16.23;100.00
72285;BME280;60220;53.552;10.092;2023-09-19T04:08:28;100295.63;;;16.33;100.00
72285;BME280;60220;53.552;10.092;2023-09-19T04:10:57;100294.56;;;16.37;100.00
72285;BME280;60220;53.552;10.092;2023-09-19T04:13:23;100291.09;;;16.15;100.00
72285;BME280;60220;53.552;10.092;2023-09-19T04:15:50;100300.91;;;16.13;100.00
72285;BME280;60220;53.552;10.092;2023-09-19T04:18:17;100303.44;;;16.16;100.00
72285;BME280;60220;53.552;10.092;2023-09-19T04:20:50;100297.06;;;16.20;100.00
72285;BME280;60220;53.552;10.092;2023-09-19T04:23:17;100310.97;;;16.25;100.00
72285;BME280;60220;53.552;10.092;2023-09-19T04:25:50;100309.91;;;15.67;100.00
72285;BME280;60220;53.552;10.092;2023-09-19T04:28:16;100318.50;;;15.93;100.00
72285;BME280;60220;53.552;10.092;2023-09-19T04:30:43;100319.25;;;15.97;100.00
72285;BME280;60220;53.552;10.092;2023-09-19T04:33:10;100332.88;;;15.88;100.00
72285;BME280;60220;53.552;10.092;2023-09-19T04:35:37;100329.44;;;16.26;100.00
72285;BME280;60220;53.552;10.092;2023-09-19T04:38:05;100349.72;;;15.85;100.00
72285;BME280;60220;53.552;10.092;2023-09-19T04:40:32;100353.34;;;15.61;100.00
72285;BME280;60220;53.552;10.092;2023-09-19T04:42:59;100340.19;;;15.81;100.00
72285;BME280;60220;53.552;10.092;2023-09-19T04:45:27;100347.53;;;15.95;100.00
72285;BME280;60220;53.552;10.092;2023-09-19T04:47:55;100356.34;;;15.96;100.00
72285;BME280;60220;53.552;10.092;2023-09-19T04:50:24;100353.66;;;15.75;100.00
72285;BME280;60220;53.552;10.092;2023-09-19T04:52:52;100353.53;;;15.10;100.00
72285;BME280;60220;53.552;10.092;2023-09-19T04:55:20;100351.78;;;15.79;100.00
72285;BME280;60220;53.552;10.092;2023-09-19T04:57:48;100359.28;;;15.68;100.00
72285;BME280;60220;53.552;10.092;2023-09-19T05:00:16;100356.19;;;15.78;100.00
72285;BME280;60220;53.552;10.092;2023-09-19T05:02:49;100350.50;;;15.44;100.00
72285;BME280;60220;53.552;10.092;2023-09-19T05:05:16;100359.75;;;15.77;100.00
72285;BME280;60220;53.552;10.092;2023-09-19T05:07:44;100362.56;;;15.51;100.00
72285;BME280;60220;53.552;10.092;2023-09-19T05:10:14;100357.19;;;15.54;100.00
72285;BME280;60220;53.552;10.092;2023-09-19T05:12:44;100349.38;;;15.49;100.00
72285;BME280;60220;53.552;10.092;2023-09-19T05:15:14;100360.28;;;15.19;100.00
72285;BME280;60220;53.552;10.092;2023-09-19T05:17:48;100362.56;;;15.94;100.00
72285;BME280;60220;53.552;10.092;2023-09-19T05:20:18;100364.00;;;15.81;100.00
72285;BME280;60220;53.552;10.092;2023-09-19T05:22:50;100375.84;;;16.15;100.00
72285;BME280;60220;53.552;10.092;2023-09-19T05:25:23;100381.13;;;16.15;100.00
72285;BME280;60220;53.552;10.092;2023-09-19T05:27:54;100378.88;;;16.06;100.00
72285;BME280;60220;53.552;10.092;2023-09-19T05:30:21;100380.38;;;15.46;100.00
72285;BME280;60220;53.552;10.092;2023-09-19T05:32:48;100377.28;;;15.12;100.00
72285;BME280;60220;53.552;10.092;2023-09-19T05:35:15;100383.50;;;15.11;100.00
72285;BME280;60220;53.552;10.092;2023-09-19T05:37:41;100381.66;;;15.13;100.00
72285;BME280;60220;53.552;10.092;2023-09-19T05:40:11;100383.63;;;15.54;100.00
72285;BME280;60220;53.552;10.092;2023-09-19T05:42:41;100382.72;;;15.08;100.00
72285;BME280;60220;53.552;10.092;2023-09-19T05:45:11;100376.75;;;15.48;100.00
72285;BME280;60220;53.552;10.092;2023-09-19T05:47:38;100376.47;;;15.09;100.00
72285;BME280;60220;53.552;10.092;2023-09-19T05:50:06;100378.22;;;15.11;100.00
72285;BME280;60220;53.552;10.092;2023-09-19T05:52:34;100386.44;;;15.03;100.00
72285;BME280;60220;53.552;10.092;2023-09-19T05:55:03;100394.41;;;15.01;100.00
72285;BME280;60220;53.552;10.092;2023-09-19T05:57:32;100387.41;;;15.24;100.00
72285;BME280;60220;53.552;10.092;2023-09-19T06:00:02;100396.47;;;15.40;100.00
72285;BME280;60220;53.552;10.092;2023-09-19T06:02:35;100388.50;;;15.41;100.00
72285;BME280;60220;53.552;10.092;2023-09-19T06:05:04;100399.47;;;15.77;100.00
72285;BME280;60220;53.552;10.092;2023-09-19T06:07:31;100397.53;;;15.81;100.00
72285;BME280;60220;53.552;10.092;2023-09-19T06:10:02;100394.34;;;15.73;100.00
72285;BME280;60220;53.552;10.092;2023-09-19T06:12:31;100390.06;;;15.24;100.00
72285;BME280;60220;53.552;10.092;2023-09-19T06:14:59;100396.03;;;15.29;100.00
72285;BME280;60220;53.552;10.092;2023-09-19T06:17:25;100412.00;;;15.72;100.00
72285;BME280;60220;53.552;10.092;2023-09-19T06:19:55;100400.63;;;15.47;100.00
72285;BME280;60220;53.552;10.092;2023-09-19T06:22:24;100405.66;;;15.76;100.00
72285;BME280;60220;53.552;10.092;2023-09-19T06:24:50;100410.50;;;15.88;100.00
72285;BME280;60220;53.552;10.092;2023-09-19T06:27:18;100408.09;;;15.36;100.00
72285;BME280;60220;53.552;10.092;2023-09-19T06:29:45;100397.44;;;15.84;100.00
72285;BME280;60220;53.552;10.092;2023-09-19T06:32:11;100417.38;;;15.92;100.00
72285;BME280;60220;53.552;10.092;2023-09-19T06:34:38;100420.00;;;15.47;100.00
72285;BME280;60220;53.552;10.092;2023-09-19T06:37:10;100417.91;;;15.57;100.00
72285;BME280;60220;53.552;10.092;2023-09-19T06:39:36;100424.78;;;15.38;100.00
72285;BME280;60220;53.552;10.092;2023-09-19T06:42:04;100420.03;;;15.92;100.00
72285;BME280;60220;53.552;10.092;2023-09-19T06:44:31;100421.41;;;15.58;100.00
72285;BME280;60220;53.552;10.092;2023-09-19T06:46:58;100408.38;;;16.18;100.00
72285;BME280;60220;53.552;10.092;2023-09-19T06:49:24;100423.66;;;15.68;100.00
72285;BME280;60220;53.552;10.092;2023-09-19T06:51:54;100423.59;;;15.91;100.00
72285;BME280;60220;53.552;10.092;2023-09-19T06:54:22;100425.47;;;16.10;100.00
72285;BME280;60220;53.552;10.092;2023-09-19T06:56:51;100430.72;;;16.11;100.00
72285;BME280;60220;53.552;10.092;2023-09-19T06:59:17;100423.69;;;16.10;100.00
72285;BME280;60220;53.552;10.092;2023-09-19T07:01:44;100414.06;;;15.87;100.00
72285;BME280;60220;53.552;10.092;2023-09-19T07:04:12;100428.34;;;15.83;100.00
72285;BME280;60220;53.552;10.092;2023-09-19T07:06:39;100431.41;;;15.94;100.00
72285;BME280;60220;53.552;10.092;2023-09-19T07:09:08;100425.13;;;16.19;100.00
72285;BME280;60220;53.552;10.092;2023-09-19T07:11:36;100446.56;;;16.13;100.00
72285;BME280;60220;53.552;10.092;2023-09-19T07:14:03;100448.53;;;16.08;100.00
72285;BME280;60220;53.552;10.092;2023-09-19T07:16:31;100451.19;;;16.08;100.00
72285;BME280;60220;53.552;10.092;2023-09-19T07:19:00;100449.75;;;16.43;100.00
72285;BME280;60220;53.552;10.092;2023-09-19T07:21:27;100459.47;;;16.42;100.00
72285;BME280;60220;53.552;10.092;2023-09-19T07:23:55;100464.53;;;16.05;100.00
72285;BME280;60220;53.552;10.092;2023-09-19T07:26:21;100469.63;;;16.31;100.00
72285;BME280;60220;53.552;10.092;2023-09-19T07:28:49;100460.66;;;16.55;100.00
72285;BME280;60220;53.552;10.092;2023-09-19T07:31:16;100467.59;;;16.38;100.00
72285;BME280;60220;53.552;10.092;2023-09-19T07:33:43;100469.59;;;16.11;100.00
72285;BME280;60220;53.552;10.092;2023-09-19T07:36:10;100468.81;;;16.29;100.00
72285;BME280;60220;53.552;10.092;2023-09-19T07:38:39;100466.81;;;16.35;100.00
72285;BME280;60220;53.552;10.092;2023-09-19T07:41:06;100462.31;;;16.79;100.00
72285;BME280;60220;53.552;10.092;2023-09-19T07:43:34;100472.66;;;16.86;100.00
72285;BME280;60220;53.552;10.092;2023-09-19T07:46:04;100480.03;;;16.57;100.00
72285;BME280;60220;53.552;10.092;2023-09-19T07:48:32;100477.81;;;16.25;100.00
72285;BME280;60220;53.552;10.092;2023-09-19T07:51:01;100482.88;;;15.87;100.00
72285;BME280;60220;53.552;10.092;2023-09-19T07:53:29;100484.38;;;16.38;100.00
72285;BME280;60220;53.552;10.092;2023-09-19T07:56:02;100479.06;;;15.48;100.00
72285;BME280;60220;53.552;10.092;2023-09-19T07:58:31;100477.97;;;16.44;100.00
72285;BME280;60220;53.552;10.092;2023-09-19T08:01:04;100486.31;;;15.89;100.00
72285;BME280;60220;53.552;10.092;2023-09-19T08:03:34;100486.25;;;15.91;100.00
72285;BME280;60220;53.552;10.092;2023-09-19T08:06:07;100489.59;;;16.18;100.00
72285;BME280;60220;53.552;10.092;2023-09-19T08:08:35;100477.59;;;16.31;100.00
72285;BME280;60220;53.552;10.092;2023-09-19T08:11:03;100501.09;;;15.95;100.00
72285;BME280;60220;53.552;10.092;2023-09-19T08:13:36;100501.66;;;16.25;100.00
72285;BME280;60220;53.552;10.092;2023-09-19T08:16:04;100496.66;;;15.96;100.00
72285;BME280;60220;53.552;10.092;2023-09-19T08:18:31;100494.94;;;15.94;100.00
72285;BME280;60220;53.552;10.092;2023-09-19T08:20:58;100497.25;;;16.04;100.00
72285;BME280;60220;53.552;10.092;2023-09-19T08:23:27;100492.38;;;16.36;100.00
72285;BME280;60220;53.552;10.092;2023-09-19T08:25:56;100490.28;;;16.66;100.00
72285;BME280;60220;53.552;10.092;2023-09-19T08:28:23;100488.22;;;16.29;100.00
72285;BME280;60220;53.552;10.092;2023-09-19T08:30:49;100486.69;;;16.46;100.00
72285;BME280;60220;53.552;10.092;2023-09-19T08:33:20;100487.56;;;16.46;100.00
72285;BME280;60220;53.552;10.092;2023-09-19T08:35:47;100490.75;;;16.96;100.00
72285;BME280;60220;53.552;10.092;2023-09-19T08:38:14;100488.91;;;16.78;100.00
72285;BME280;60220;53.552;10.092;2023-09-19T08:40:41;100496.38;;;16.68;100.00
72285;BME280;60220;53.552;10.092;2023-09-19T08:43:09;100497.22;;;16.69;100.00
72285;BME280;60220;53.552;10.092;2023-09-19T08:45:35;100492.13;;;16.85;100.00
72285;BME280;60220;53.552;10.092;2023-09-19T08:48:22;100493.53;;;16.08;100.00
72285;BME280;60220;53.552;10.092;2023-09-19T08:50:52;100504.31;;;16.25;100.00
72285;BME280;60220;53.552;10.092;2023-09-19T08:53:27;100496.31;;;16.26;100.00
72285;BME280;60220;53.552;10.092;2023-09-19T08:55:59;100491.63;;;16.33;100.00
72285;BME280;60220;53.552;10.092;2023-09-19T08:58:31;100495.81;;;16.60;100.00
72285;BME280;60220;53.552;10.092;2023-09-19T09:01:01;100497.59;;;16.60;100.00
72285;BME280;60220;53.552;10.092;2023-09-19T09:03:32;100494.47;;;16.28;100.00
72285;BME280;60220;53.552;10.092;2023-09-19T09:06:00;100485.78;;;16.89;100.00
72285;BME280;60220;53.552;10.092;2023-09-19T09:08:31;100484.06;;;16.67;100.00
72285;BME280;60220;53.552;10.092;2023-09-19T09:10:58;100490.69;;;16.98;100.00
72285;BME280;60220;53.552;10.092;2023-09-19T09:13:25;100497.47;;;15.98;100.00
72285;BME280;60220;53.552;10.092;2023-09-19T09:15:53;100499.16;;;16.65;100.00
72285;BME280;60220;53.552;10.092;2023-09-19T09:18:20;100504.16;;;16.73;100.00
72285;BME280;60220;53.552;10.092;2023-09-19T09:20:49;100492.34;;;16.15;100.00
72285;BME280;60220;53.552;10.092;2023-09-19T09:23:16;100506.47;;;17.01;100.00
72285;BME280;60220;53.552;10.092;2023-09-19T09:25:53;100499.84;;;17.50;100.00
72285;BME280;60220;53.552;10.092;2023-09-19T09:28:28;100511.94;;;17.57;100.00
72285;BME280;60220;53.552;10.092;2023-09-19T09:30:56;100506.63;;;16.98;100.00
72285;BME280;60220;53.552;10.092;2023-09-19T09:33:23;100502.06;;;16.79;100.00
72285;BME280;60220;53.552;10.092;2023-09-19T09:35:53;100501.06;;;16.62;100.00
72285;BME280;60220;53.552;10.092;2023-09-19T09:38:22;100495.91;;;17.19;100.00
72285;BME280;60220;53.552;10.092;2023-09-19T09:40:52;100498.03;;;16.71;100.00
72285;BME280;60220;53.552;10.092;2023-09-19T09:43:31;100507.53;;;16.76;100.00
72285;BME280;60220;53.552;10.092;2023-09-19T09:46:12;100499.28;;;17.43;100.00
72285;BME280;60220;53.552;10.092;2023-09-19T09:48:58;100504.66;;;17.81;100.00
72285;BME280;60220;53.552;10.092;2023-09-19T09:51:45;100508.16;;;17.81;100.00
72285;BME280;60220;53.552;10.092;2023-09-19T09:54:14;100509.69;;;17.68;100.00
72285;BME280;60220;53.552;10.092;2023-09-19T09:56:55;100500.34;;;17.97;100.00
72285;BME280;60220;53.552;10.092;2023-09-19T09:59:46;100504.38;;;18.05;100.00
72285;BME280;60220;53.552;10.092;2023-09-19T10:02:15;100496.31;;;17.70;100.00
72285;BME280;60220;53.552;10.092;2023-09-19T10:04:48;100498.97;;;17.49;100.00
72285;BME280;60220;53.552;10.092;2023-09-19T10:07:36;100501.63;;;17.70;100.00
72285;BME280;60220;53.552;10.092;2023-09-19T10:10:06;100510.13;;;17.78;100.00
72285;BME280;60220;53.552;10.092;2023-09-19T10:12:43;100501.38;;;18.30;100.00
72285;BME280;60220;53.552;10.092;2023-09-19T10:15:14;100505.13;;;18.26;100.00
72285;BME280;60220;53.552;10.092;2023-09-19T10:17:43;100506.06;;;18.25;100.00
72285;BME280;60220;53.552;10.092;2023-09-19T10:20:15;100493.38;;;17.76;100.00
72285;BME280;60220;53.552;10.092;2023-09-19T10:22:54;100515.13;;;18.21;100.00
72285;BME280;60220;53.552;10.092;2023-09-19T10:25:25;100507.69;;;17.92;100.00
72285;BME280;60220;53.552;10.092;2023-09-19T10:27:54;100515.69;;;17.72;100.00
72285;BME280;60220;53.552;10.092;2023-09-19T10:30:23;100526.63;;;18.03;100.00
72285;BME280;60220;53.552;10.092;2023-09-19T10:33:00;100523.25;;;17.81;100.00
72285;BME280;60220;53.552;10.092;2023-09-19T10:35:29;100512.41;;;17.46;100.00
72285;BME280;60220;53.552;10.092;2023-09-19T10:38:00;100513.69;;;18.14;100.00
72285;BME280;60220;53.552;10.092;2023-09-19T10:40:28;100514.69;;;17.74;100.00
72285;BME280;60220;53.552;10.092;2023-09-19T10:43:01;100510.81;;;18.00;100.00
72285;BME280;60220;53.552;10.092;2023-09-19T10:45:33;100513.53;;;17.61;100.00
72285;BME280;60220;53.552;10.092;2023-09-19T10:48:03;100506.53;;;17.97;100.00
72285;BME280;60220;53.552;10.092;2023-09-19T10:50:33;100500.31;;;17.59;100.00
72285;BME280;60220;53.552;10.092;2023-09-19T10:53:05;100511.47;;;17.86;100.00
72285;BME280;60220;53.552;10.092;2023-09-19T10:55:34;100509.00;;;18.19;100.00
72285;BME280;60220;53.552;10.092;2023-09-19T10:58:02;100515.88;;;18.23;100.00
72285;BME280;60220;53.552;10.092;2023-09-19T11:01:01;100504.66;;;17.81;100.00
72285;BME280;60220;53.552;10.092;2023-09-19T11:03:37;100508.81;;;17.86;100.00
72285;BME280;60220;53.552;10.092;2023-09-19T11:06:11;100514.63;;;17.55;100.00
72285;BME280;60220;53.552;10.092;2023-09-19T11:09:01;100517.28;;;18.13;100.00
72285;BME280;60220;53.552;10.092;2023-09-19T11:11:51;100513.38;;;18.20;100.00
72285;BME280;60220;53.552;10.092;2023-09-19T11:14:38;100513.69;;;18.14;100.00
72285;BME280;60220;53.552;10.092;2023-09-19T11:17:39;100516.97;;;18.19;100.00
72285;BME280;60220;53.552;10.092;2023-09-19T11:20:25;100508.09;;;18.01;100.00
72285;BME280;60220;53.552;10.092;2023-09-19T11:23:20;100511.56;;;18.39;100.00
72285;BME280;60220;53.552;10.092;2023-09-19T11:25:53;100511.41;;;18.06;100.00
72285;BME280;60220;53.552;10.092;2023-09-19T11:28:44;100505.59;;;18.17;100.00
72285;BME280;60220;53.552;10.092;2023-09-19T11:34:47;100503.22;;;18.11;100.00
72285;BME280;60220;53.552;10.092;2023-09-19T11:40:32;100504.09;;;17.93;100.00
72285;BME280;60220;53.552;10.092;2023-09-19T11:43:28;100513.75;;;18.31;100.00
72285;BME280;60220;53.552;10.092;2023-09-19T11:46:09;100504.38;;;17.87;100.00
72285;BME280;60220;53.552;10.092;2023-09-19T11:48:38;100505.72;;;17.77;100.00
72285;BME280;60220;53.552;10.092;2023-09-19T11:51:19;100505.88;;;17.53;100.00
72285;BME280;60220;53.552;10.092;2023-09-19T11:53:48;100511.41;;;18.06;100.00
72285;BME280;60220;53.552;10.092;2023-09-19T11:56:19;100518.34;;;18.09;100.00
72285;BME280;60220;53.552;10.092;2023-09-19T11:58:50;100508.50;;;17.74;100.00
72285;BME280;60220;53.552;10.092;2023-09-19T12:01:23;100502.16;;;17.78;100.00
72285;BME280;60220;53.552;10.092;2023-09-19T12:03:53;100487.44;;;18.08;100.00
72285;BME280;60220;53.552;10.092;2023-09-19T12:06:23;100493.38;;;18.13;100.00
72285;BME280;60220;53.552;10.092;2023-09-19T12:08:50;100493.75;;;17.68;100.00
72285;BME280;60220;53.552;10.092;2023-09-19T12:11:22;100498.72;;;18.30;100.00
72285;BME280;60220;53.552;10.092;2023-09-19T12:13:53;100501.34;;;18.49;100.00
72285;BME280;60220;53.552;10.092;2023-09-19T12:16:26;100493.38;;;17.94;100.00
72285;BME280;60220;53.552;10.092;2023-09-19T12:18:56;100505.31;;;18.40;100.00
72285;BME280;60220;53.552;10.092;2023-09-19T12:21:27;100504.09;;;18.47;100.00
72285;BME280;60220;53.552;10.092;2023-09-19T12:24:04;100497.75;;;17.95;100.00
72285;BME280;60220;53.552;10.092;2023-09-19T12:26:39;100500.56;;;17.92;100.00
72285;BME280;60220;53.552;10.092;2023-09-19T12:29:12;100507.88;;;18.06;100.00
72285;BME280;60220;53.552;10.092;2023-09-19T12:31:52;100486.22;;;17.96;100.00
72285;BME280;60220;53.552;10.092;2023-09-19T12:34:23;100497.41;;;18.39;100.00
72285;BME280;60220;53.552;10.092;2023-09-19T12:37:04;100489.28;;;18.61;100.00
72285;BME280;60220;53.552;10.092;2023-09-19T12:39:37;100490.13;;;18.78;100.00
72285;BME280;60220;53.552;10.092;2023-09-19T12:42:04;100501.38;;;18.30;100.00
72285;BME280;60220;53.552;10.092;2023-09-19T12:44:36;100490.38;;;18.91;100.00
72285;BME280;60220;53.552;10.092;2023-09-19T12:47:11;100503.44;;;18.78;100.00
72285;BME280;60220;53.552;10.092;2023-09-19T12:50:07;100482.41;;;18.74;100.00
72285;BME280;60220;53.552;10.092;2023-09-19T12:52:40;100489.75;;;19.03;100.00
72285;BME280;60220;53.552;10.092;2023-09-19T12:55:07;100478.53;;;19.14;100.00